createdAt,value
2018-07-04T00:01:33.288Z,7.00
2018-07-04T00:04:14.804Z,6.90
2018-07-04T00:06:57.444Z,7.60
2018-07-04T00:09:39.002Z,7.50
2018-07-04T00:12:20.444Z,6.80
2018-07-04T00:15:02.408Z,7.70
2018-07-04T00:17:44.211Z,6.90
2018-07-04T00:20:56.309Z,6.00
2018-07-04T00:23:37.880Z,6.70
2018-07-04T00:26:19.701Z,6.60
2018-07-04T00:29:01.705Z,6.90
2018-07-04T00:31:43.460Z,5.70
2018-07-04T00:34:25.330Z,6.20
2018-07-04T00:37:07.016Z,5.90
2018-07-04T00:39:48.660Z,6.30
2018-07-04T00:42:30.235Z,6.10
2018-07-04T00:45:12.140Z,6.00
2018-07-04T00:47:53.715Z,5.50
2018-07-04T00:50:35.517Z,5.80
2018-07-04T00:53:16.879Z,6.50
2018-07-04T00:55:58.889Z,5.90
2018-07-04T00:58:40.460Z,5.30
2018-07-04T01:01:22.495Z,4.60
2018-07-04T01:04:04.608Z,4.00
2018-07-04T01:06:46.079Z,4.80
2018-07-04T01:09:27.727Z,5.00
2018-07-04T01:12:09.467Z,4.40
2018-07-04T01:14:51.231Z,4.20
2018-07-04T01:17:32.651Z,4.80
2018-07-04T01:20:14.272Z,5.50
2018-07-04T01:22:55.722Z,5.30
2018-07-04T01:25:37.263Z,4.60
2018-07-04T01:28:19.108Z,5.10
2018-07-04T01:31:01.240Z,4.70
2018-07-04T01:33:43.629Z,4.50
2018-07-04T01:36:25.282Z,5.60
2018-07-04T01:39:07.286Z,5.70
2018-07-04T01:41:49.014Z,5.30
2018-07-04T01:44:30.879Z,5.00
2018-07-04T01:49:47.894Z,5.20
2018-07-04T01:52:28.917Z,5.90
2018-07-04T01:55:10.263Z,5.60
2018-07-04T01:57:52.133Z,6.30
2018-07-04T02:00:33.554Z,6.40
2018-07-04T02:03:15.106Z,6.60
2018-07-04T02:05:56.722Z,6.10
2018-07-04T02:08:38.049Z,6.40
2018-07-04T02:11:19.875Z,6.80
2018-07-04T02:14:01.835Z,6.70
2018-07-04T02:16:42.774Z,6.50
2018-07-04T02:19:24.642Z,7.00
2018-07-04T02:22:06.037Z,6.80
2018-07-04T02:24:47.600Z,7.30
2018-07-04T02:27:29.389Z,7.10
2018-07-04T02:30:10.880Z,6.40
2018-07-04T02:32:52.879Z,7.10
2018-07-04T02:35:34.849Z,7.40
2018-07-04T02:38:16.598Z,7.60
2018-07-04T02:40:58.772Z,7.10
2018-07-04T02:43:40.002Z,7.50
2018-07-04T02:46:26.056Z,7.50
2018-07-04T02:49:07.614Z,7.40
2018-07-04T02:51:49.006Z,7.50
2018-07-04T02:54:30.401Z,7.20
2018-07-04T02:57:11.636Z,8.00
2018-07-04T02:59:53.405Z,7.80
2018-07-04T03:02:35.148Z,8.20
2018-07-04T03:05:17.171Z,8.30
2018-07-04T03:07:59.057Z,8.20
2018-07-04T03:10:40.433Z,8.30
2018-07-04T03:13:22.632Z,9.10
2018-07-04T03:16:04.421Z,8.50
2018-07-04T03:18:45.291Z,9.10
2018-07-04T03:21:27.074Z,9.00
2018-07-04T03:24:08.431Z,8.80
2018-07-04T03:26:50.264Z,9.00
2018-07-04T03:29:31.621Z,9.30
2018-07-04T03:32:13.446Z,9.20
2018-07-04T03:34:55.868Z,9.50
2018-07-04T03:37:37.575Z,9.60
2018-07-04T03:40:18.721Z,9.40
2018-07-04T03:43:00.603Z,10.10
2018-07-04T03:45:42.343Z,10.00
2018-07-04T03:48:24.179Z,10.30
2018-07-04T03:51:05.579Z,10.70
2018-07-04T03:53:47.351Z,10.60
2018-07-04T03:56:28.969Z,11.10
2018-07-04T03:59:11.123Z,11.70
2018-07-04T04:01:52.751Z,11.40
2018-07-04T04:04:34.505Z,11.90
2018-07-04T04:07:16.535Z,11.80
2018-07-04T04:09:57.915Z,11.90
2018-07-04T04:12:39.294Z,12.70
2018-07-04T04:15:20.670Z,12.30
2018-07-04T04:18:02.573Z,13.00
2018-07-04T04:20:44.328Z,12.90
2018-07-04T04:23:25.270Z,12.90
2018-07-04T04:26:06.663Z,13.20
2018-07-04T04:28:48.554Z,13.30
2018-07-04T04:31:30.023Z,13.80
2018-07-04T04:34:11.788Z,14.00
2018-07-04T04:36:53.983Z,13.90
2018-07-04T04:39:35.774Z,14.00
2018-07-04T04:42:16.732Z,14.50
2018-07-04T04:44:57.594Z,15.10
2018-07-04T04:47:38.912Z,15.00
2018-07-04T04:50:20.096Z,14.90
2018-07-04T04:53:01.487Z,15.00
2018-07-04T04:55:43.065Z,15.60
2018-07-04T04:58:24.817Z,15.70
2018-07-04T05:01:06.443Z,15.80
2018-07-04T05:06:24.169Z,16.80
2018-07-04T05:09:05.968Z,16.80
2018-07-04T05:11:47.768Z,17.50
2018-07-04T05:14:29.984Z,17.80
2018-07-04T05:17:11.740Z,18.30
2018-07-04T05:19:53.758Z,19.10
2018-07-04T05:22:35.712Z,19.50
2018-07-04T05:25:17.524Z,20.20
2018-07-04T05:27:59.094Z,20.50
2018-07-04T05:30:40.699Z,20.90
2018-07-04T05:33:22.198Z,20.90
2018-07-04T05:36:04.044Z,21.80
2018-07-04T05:38:45.770Z,22.30
2018-07-04T05:41:27.184Z,23.10
2018-07-04T05:44:09.046Z,23.40
2018-07-04T05:46:51.030Z,23.90
2018-07-04T05:49:32.633Z,24.10
2018-07-04T05:52:13.990Z,24.10
2018-07-04T05:54:55.690Z,24.80
2018-07-04T05:57:37.486Z,24.70
2018-07-04T06:00:18.710Z,25.00
2018-07-04T06:03:00.452Z,24.90
2018-07-04T06:05:42.440Z,24.90
2018-07-04T06:08:24.576Z,25.30
2018-07-04T06:11:05.780Z,25.70
2018-07-04T06:13:47.089Z,25.90
2018-07-04T06:16:29.741Z,26.20
2018-07-04T06:19:11.133Z,26.30
2018-07-04T06:21:52.772Z,26.30
2018-07-04T06:24:34.291Z,26.50
2018-07-04T06:27:15.688Z,26.90
2018-07-04T06:29:57.545Z,27.20
2018-07-04T06:32:39.345Z,27.40
2018-07-04T06:35:20.949Z,27.60
2018-07-04T06:37:50.856Z,27.70
2018-07-04T06:40:20.762Z,28.10
2018-07-04T06:42:50.267Z,28.20
2018-07-04T06:45:19.975Z,28.40
2018-07-04T06:47:49.482Z,28.50
2018-07-04T06:50:18.977Z,28.90
2018-07-04T06:52:48.611Z,28.60
2018-07-04T06:55:19.339Z,29.40
2018-07-04T06:57:48.659Z,29.10
2018-07-04T07:00:18.583Z,29.10
2018-07-04T07:02:48.072Z,29.30
2018-07-04T07:05:29.694Z,29.60
2018-07-04T07:08:11.211Z,30.10
2018-07-04T07:10:52.843Z,30.20
2018-07-04T07:13:34.617Z,30.30
2018-07-04T07:16:16.223Z,30.50
2018-07-04T07:18:57.773Z,30.60
2018-07-04T07:21:39.560Z,31.10
2018-07-04T07:24:20.962Z,31.40
2018-07-04T07:27:02.540Z,31.50
2018-07-04T07:29:43.928Z,31.40
2018-07-04T07:32:25.741Z,32.00
2018-07-04T07:35:07.518Z,32.60
2018-07-04T07:37:49.424Z,33.00
2018-07-04T07:40:31.366Z,32.80
2018-07-04T07:43:13.002Z,33.10
2018-07-04T07:45:54.567Z,33.10
2018-07-04T07:48:36.401Z,33.40
2018-07-04T07:51:18.391Z,33.50
2018-07-04T07:54:00.242Z,34.10
2018-07-04T07:56:41.933Z,33.50
2018-07-04T07:59:23.535Z,34.40
2018-07-04T08:02:05.317Z,34.80
2018-07-04T08:04:47.038Z,35.10
2018-07-04T08:07:28.417Z,35.90
2018-07-04T08:10:10.000Z,35.60
2018-07-04T08:12:51.376Z,36.10
2018-07-04T08:15:33.146Z,36.60
2018-07-04T08:18:14.761Z,37.00
2018-07-04T08:20:56.326Z,37.70
2018-07-04T08:23:37.502Z,37.30
2018-07-04T08:26:19.098Z,38.10
2018-07-04T08:29:00.656Z,38.30
2018-07-04T08:31:42.290Z,38.70
2018-07-04T08:34:23.859Z,38.80
2018-07-04T08:37:05.436Z,39.00
2018-07-04T08:39:47.046Z,39.10
2018-07-04T08:42:28.901Z,39.40
2018-07-04T08:45:10.211Z,39.60
2018-07-04T08:47:51.891Z,39.20
2018-07-04T08:50:33.740Z,39.70
2018-07-04T08:53:15.477Z,39.40
2018-07-04T08:55:57.267Z,39.70
2018-07-04T08:58:39.210Z,40.00
2018-07-04T09:01:20.727Z,40.30
2018-07-04T09:04:02.351Z,40.70
2018-07-04T09:06:43.915Z,40.80
2018-07-04T09:09:26.171Z,41.40
2018-07-04T09:12:07.548Z,41.10
2018-07-04T09:14:49.215Z,40.60
2018-07-04T09:17:32.072Z,41.30
2018-07-04T09:20:13.667Z,41.80
2018-07-04T09:22:55.282Z,41.20
2018-07-04T09:25:36.900Z,41.20
2018-07-04T09:28:18.865Z,41.40
2018-07-04T09:31:00.348Z,41.70
2018-07-04T09:33:41.478Z,41.80
2018-07-04T09:36:23.474Z,41.60
2018-07-04T09:39:05.060Z,40.70
2018-07-04T09:41:46.645Z,41.20
2018-07-04T09:44:28.390Z,40.50
2018-07-04T09:47:10.007Z,41.20
2018-07-04T09:49:51.783Z,41.10
2018-07-04T09:52:33.793Z,42.00
2018-07-04T09:55:15.577Z,41.10
2018-07-04T09:57:56.998Z,40.50
2018-07-04T10:00:43.287Z,40.80
2018-07-04T10:03:25.056Z,40.80
2018-07-04T10:06:06.642Z,40.40
2018-07-04T10:08:48.342Z,40.50
2018-07-04T10:11:30.372Z,40.10
2018-07-04T10:14:12.126Z,40.20
2018-07-04T10:16:53.894Z,39.80
2018-07-04T10:19:35.500Z,40.20
2018-07-04T10:22:16.909Z,39.80
2018-07-04T10:24:58.662Z,40.20
2018-07-04T10:27:40.245Z,39.70
2018-07-04T10:30:21.851Z,39.10
2018-07-04T10:33:03.440Z,39.10
2018-07-04T10:35:45.048Z,39.80
2018-07-04T10:38:26.589Z,39.70
2018-07-04T10:41:08.381Z,39.50
2018-07-04T10:43:50.000Z,40.00
2018-07-04T10:46:32.176Z,39.20
2018-07-04T10:49:13.599Z,39.10
2018-07-04T10:51:55.194Z,39.60
2018-07-04T10:54:36.919Z,39.40
2018-07-04T10:57:18.397Z,39.20
2018-07-04T11:00:00.331Z,38.60
2018-07-04T11:02:41.922Z,38.70
2018-07-04T11:05:23.495Z,39.30
2018-07-04T11:08:04.823Z,38.00
2018-07-04T11:10:46.187Z,37.70
2018-07-04T11:13:27.782Z,37.80
2018-07-04T11:16:09.367Z,38.00
2018-07-04T11:18:51.164Z,38.60
2018-07-04T11:21:32.942Z,37.70
2018-07-04T11:24:14.526Z,36.90
2018-07-04T11:26:56.324Z,36.60
2018-07-04T11:29:37.912Z,37.10
2018-07-04T11:32:19.745Z,36.30
2018-07-04T11:35:01.306Z,36.90
2018-07-04T11:37:43.061Z,37.20
2018-07-04T11:40:24.638Z,37.20
2018-07-04T11:43:05.887Z,36.20
2018-07-04T11:45:47.426Z,36.20
2018-07-04T11:48:17.155Z,36.60
2018-07-04T11:50:46.853Z,37.20
2018-07-04T11:53:16.490Z,36.90
2018-07-04T11:55:45.972Z,36.70
2018-07-04T11:58:16.004Z,37.30
2018-07-04T12:00:45.922Z,37.40
2018-07-04T12:03:21.254Z,36.60
2018-07-04T12:06:02.826Z,37.20
2018-07-04T12:08:32.536Z,36.90
2018-07-04T12:11:03.043Z,36.40
2018-07-04T12:13:32.734Z,36.40
2018-07-04T12:16:02.452Z,36.60
2018-07-04T12:18:32.613Z,36.40
2018-07-04T12:23:32.043Z,37.10
2018-07-04T12:26:01.521Z,38.20
2018-07-04T12:28:31.132Z,37.20
2018-07-04T12:31:00.652Z,36.90
2018-07-04T12:33:30.324Z,36.90
2018-07-04T12:36:00.025Z,37.10
2018-07-04T12:38:29.576Z,36.10
2018-07-04T12:40:59.467Z,36.80
2018-07-04T12:43:29.033Z,36.40
2018-07-04T12:45:58.893Z,36.20
2018-07-04T12:48:28.566Z,36.20
2018-07-04T12:50:59.578Z,37.10
2018-07-04T12:53:29.836Z,36.20
2018-07-04T12:56:11.597Z,36.60
2018-07-04T12:58:53.000Z,37.10
2018-07-04T13:01:34.778Z,37.00
2018-07-04T13:04:16.576Z,36.50
2018-07-04T13:06:58.174Z,36.10
2018-07-04T13:09:39.540Z,36.10
2018-07-04T13:12:21.129Z,35.90
2018-07-04T13:15:02.724Z,36.20
2018-07-04T13:17:44.416Z,35.80
2018-07-04T13:20:26.199Z,36.30
2018-07-04T13:23:07.798Z,36.20
2018-07-04T13:25:49.603Z,35.70
2018-07-04T13:28:31.431Z,35.20
2018-07-04T13:31:12.759Z,35.70
2018-07-04T13:33:54.573Z,34.80
2018-07-04T13:36:36.342Z,33.90
2018-07-04T13:41:53.778Z,34.70
2018-07-04T13:44:35.387Z,35.10
2018-07-04T13:47:17.011Z,34.40
2018-07-04T13:49:59.493Z,34.20
2018-07-04T13:52:41.244Z,33.60
2018-07-04T13:55:22.683Z,33.50
2018-07-04T13:58:05.472Z,33.10
2018-07-04T14:00:47.056Z,34.30
2018-07-04T14:03:28.682Z,32.60
2018-07-04T14:06:10.018Z,32.30
2018-07-04T14:08:51.806Z,33.50
2018-07-04T14:11:33.796Z,32.00
2018-07-04T14:14:15.177Z,30.00
2018-07-04T14:16:56.968Z,31.40
2018-07-04T14:19:38.692Z,30.10
2018-07-04T14:22:20.087Z,30.70
2018-07-04T14:25:01.426Z,30.00
2018-07-04T14:27:42.637Z,30.20
2018-07-04T14:30:24.198Z,30.00
2018-07-04T14:33:05.800Z,28.20
2018-07-04T14:35:47.379Z,27.30
2018-07-04T14:38:29.393Z,25.40
2018-07-04T14:41:11.167Z,27.50
2018-07-04T14:43:52.820Z,28.40
2018-07-04T14:46:34.549Z,17.80
2018-07-04T14:49:16.134Z,26.60
2018-07-04T14:51:58.025Z,26.10
2018-07-04T14:54:39.821Z,27.20
2018-07-04T14:57:21.393Z,27.30
2018-07-04T15:00:02.821Z,22.70
2018-07-04T15:02:44.490Z,21.10
2018-07-04T15:05:26.117Z,18.20
2018-07-04T15:08:07.861Z,21.60
2018-07-04T15:10:49.464Z,15.50
2018-07-04T15:13:31.901Z,13.40
2018-07-04T15:16:13.295Z,9.40
2018-07-04T15:18:55.634Z,8.50
2018-07-04T15:21:37.051Z,7.50
2018-07-04T15:24:18.407Z,7.20
2018-07-04T15:27:00.203Z,6.80
2018-07-04T15:29:42.201Z,7.00
2018-07-04T15:32:23.992Z,5.90
2018-07-04T15:35:05.198Z,5.90
2018-07-04T15:37:46.959Z,6.50
2018-07-04T15:40:28.582Z,6.30
2018-07-04T15:43:10.172Z,6.30
2018-07-04T15:45:51.718Z,5.30
2018-07-04T15:48:33.615Z,5.70
2018-07-04T15:51:14.999Z,5.30
2018-07-04T15:53:57.004Z,4.90
2018-07-04T15:56:38.778Z,4.80
2018-07-04T15:59:20.398Z,5.20
2018-07-04T16:02:01.972Z,5.90
2018-07-04T16:04:43.670Z,5.50
2018-07-04T16:07:25.054Z,4.70
2018-07-04T16:10:06.634Z,4.90
2018-07-04T16:12:48.132Z,3.40
2018-07-04T16:15:29.761Z,2.10
2018-07-04T16:18:11.655Z,1.00
2018-07-04T16:23:29.796Z,2.00
2018-07-04T16:26:11.973Z,1.00
2018-07-04T16:28:53.974Z,1.00
2018-07-04T16:31:35.974Z,1.00
2018-07-04T16:34:17.734Z,1.00
2018-07-04T16:36:59.138Z,1.00
2018-07-04T16:39:40.506Z,1.00
2018-07-04T16:42:22.505Z,1.00
2018-07-04T16:45:04.108Z,1.00
2018-07-04T16:47:45.671Z,1.00
2018-07-04T16:50:27.285Z,1.00
2018-07-04T16:53:08.867Z,1.00
2018-07-04T16:55:50.739Z,1.00
2018-07-04T16:58:32.753Z,1.00
2018-07-04T17:01:14.355Z,1.00
2018-07-04T17:03:56.157Z,1.00
2018-07-04T17:06:37.905Z,1.00
2018-07-04T17:09:19.717Z,1.00
2018-07-04T17:12:01.472Z,1.00
2018-07-04T17:14:43.126Z,1.00
2018-07-04T17:17:25.288Z,1.00
2018-07-04T17:20:07.138Z,1.00
2018-07-04T17:22:49.298Z,1.00
2018-07-04T17:25:31.606Z,1.00
2018-07-04T17:28:13.081Z,1.00
2018-07-04T17:30:54.884Z,1.00
2018-07-04T17:33:36.468Z,1.00
2018-07-04T17:36:18.038Z,1.00
2018-07-04T17:38:59.873Z,1.00
2018-07-04T17:41:41.452Z,1.00
2018-07-04T17:44:23.223Z,1.00
2018-07-04T17:47:05.070Z,1.00
2018-07-04T17:49:47.019Z,1.00
2018-07-04T17:52:29.105Z,1.00
2018-07-04T17:55:10.993Z,1.00
2018-07-04T17:57:53.047Z,1.00
2018-07-04T18:00:34.395Z,1.00
2018-07-04T18:03:16.193Z,1.00
2018-07-04T18:05:57.786Z,1.00
2018-07-04T18:08:39.367Z,1.00
2018-07-04T18:11:21.318Z,1.00
2018-07-04T18:14:03.373Z,1.00
2018-07-04T18:16:44.914Z,1.00
2018-07-04T18:19:26.969Z,1.00
2018-07-04T18:22:09.113Z,1.00
2018-07-04T18:24:50.539Z,1.00
2018-07-04T18:27:32.697Z,1.00
2018-07-04T18:30:14.277Z,1.00
2018-07-04T18:32:56.182Z,1.00
2018-07-04T18:35:37.826Z,1.00
2018-07-04T18:38:19.755Z,1.00
2018-07-04T18:41:01.817Z,1.00
2018-07-04T18:43:43.566Z,1.00
2018-07-04T18:46:25.231Z,1.00
2018-07-04T18:49:07.027Z,1.00
2018-07-04T18:51:48.548Z,1.00
2018-07-04T18:54:30.541Z,1.00
2018-07-04T18:57:12.324Z,1.00
2018-07-04T18:59:54.936Z,1.00
2018-07-04T19:02:36.566Z,1.00
2018-07-04T19:05:18.197Z,1.00
2018-07-04T19:08:01.350Z,1.00
2018-07-04T19:10:43.356Z,1.00
2018-07-04T19:13:25.370Z,1.00
2018-07-04T19:16:07.337Z,1.00
2018-07-04T19:18:48.928Z,1.00
2018-07-04T19:21:30.518Z,1.00
2018-07-04T19:24:12.126Z,1.00
2018-07-04T19:26:53.888Z,1.00
2018-07-04T19:29:35.497Z,1.00
2018-07-04T19:32:17.285Z,1.00
2018-07-04T19:34:59.242Z,1.00
2018-07-04T19:37:40.865Z,1.00
2018-07-04T19:40:23.071Z,1.00
2018-07-04T19:43:04.849Z,1.00
2018-07-04T19:45:46.476Z,1.00
2018-07-04T19:48:27.909Z,1.00
2018-07-04T19:51:09.237Z,1.00
2018-07-04T19:53:51.072Z,1.00
2018-07-04T19:56:32.517Z,1.00
2018-07-04T19:59:14.430Z,1.00
2018-07-04T20:01:56.680Z,1.00
2018-07-04T20:04:38.242Z,1.00
2018-07-04T20:07:19.646Z,1.00
2018-07-04T20:10:00.999Z,1.00
2018-07-04T20:12:42.630Z,1.00
2018-07-04T20:15:24.055Z,1.00
2018-07-04T20:18:06.129Z,1.00
2018-07-04T20:20:47.854Z,1.00
2018-07-04T20:23:29.350Z,1.00
2018-07-04T20:26:11.074Z,1.00
2018-07-04T20:28:52.734Z,1.00
2018-07-04T20:31:34.154Z,1.00
2018-07-04T20:34:15.909Z,1.00
2018-07-04T20:36:57.704Z,1.00
2018-07-04T20:39:39.209Z,1.00
2018-07-04T20:42:21.218Z,1.00
2018-07-04T20:45:03.214Z,1.00
2018-07-04T20:47:44.648Z,1.00
2018-07-04T20:50:26.583Z,1.00
2018-07-04T20:53:08.392Z,2.50
2018-07-04T20:55:50.184Z,2.20
2018-07-04T20:58:32.198Z,2.90
2018-07-04T21:01:13.993Z,3.70
2018-07-04T21:03:56.108Z,2.80
2018-07-04T21:06:37.854Z,2.70
2018-07-04T21:09:19.749Z,2.30
2018-07-04T21:12:01.563Z,2.80
2018-07-04T21:14:43.825Z,3.20
2018-07-04T21:17:25.415Z,3.80
2018-07-04T21:20:07.622Z,3.20
2018-07-04T21:22:49.644Z,3.60
2018-07-04T21:25:31.412Z,3.70
2018-07-04T21:28:13.412Z,2.30
2018-07-04T21:30:55.229Z,1.00
2018-07-04T21:33:37.097Z,1.80
2018-07-04T21:36:18.818Z,1.90
2018-07-04T21:39:01.002Z,1.50
2018-07-04T21:41:42.900Z,1.00
2018-07-04T21:44:24.701Z,1.30
2018-07-04T21:47:06.690Z,1.90
2018-07-04T21:49:53.444Z,1.00
2018-07-04T21:55:11.364Z,1.00
2018-07-04T21:57:53.077Z,1.50
2018-07-04T22:00:34.656Z,1.00
2018-07-04T22:03:16.650Z,1.00
2018-07-04T22:05:59.248Z,1.00
2018-07-04T22:08:41.248Z,1.00
2018-07-04T22:11:23.445Z,1.00
2018-07-04T22:14:05.210Z,1.00
2018-07-04T22:16:46.819Z,1.60
2018-07-04T22:19:28.619Z,1.00
2018-07-04T22:22:11.001Z,1.00
2018-07-04T22:24:52.919Z,1.00
2018-07-04T22:27:34.528Z,1.00
2018-07-04T22:30:16.253Z,1.00
2018-07-04T22:32:58.259Z,1.00
2018-07-04T22:35:39.269Z,1.00
2018-07-04T22:38:21.051Z,1.00
2018-07-04T22:41:03.037Z,1.00
2018-07-04T22:43:45.099Z,1.20
2018-07-04T22:46:26.433Z,1.00
2018-07-04T22:49:08.402Z,1.10
2018-07-04T22:51:49.986Z,1.50
2018-07-04T22:54:31.519Z,1.30
2018-07-04T22:57:13.476Z,1.00
2018-07-04T22:59:55.072Z,2.00
2018-07-04T23:02:36.704Z,2.30
2018-07-04T23:05:18.450Z,2.40
2018-07-04T23:08:00.652Z,3.50
2018-07-04T23:10:42.272Z,3.40
2018-07-04T23:13:23.801Z,3.90
2018-07-04T23:16:05.651Z,3.60
2018-07-04T23:18:47.204Z,4.00
2018-07-04T23:21:29.044Z,3.60
2018-07-04T23:24:10.598Z,4.50
2018-07-04T23:26:52.281Z,3.30
2018-07-04T23:29:34.142Z,5.00
2018-07-04T23:32:16.158Z,3.20
2018-07-04T23:34:57.851Z,3.60
2018-07-04T23:37:39.537Z,3.80
2018-07-04T23:40:20.930Z,4.00
2018-07-04T23:43:02.645Z,4.30
2018-07-04T23:45:44.421Z,4.50
2018-07-04T23:48:26.169Z,4.80
2018-07-04T23:51:07.977Z,5.50
2018-07-04T23:53:50.239Z,5.20
2018-07-04T23:56:31.645Z,6.10
2018-07-04T23:59:13.405Z,6.20
